Time;durP1;ratioP1;P1;durP2;ratioP2;P2;SDS_P1;SDS_P2;PMS_P1;PMS_P2;Temp;Humidity;BMP_temperature;BMP_pressure;BME280_temperature;BME280_humidity;BME280_pressure;Samples;Min_cycle;Max_cycle;Signal;HPM_P1;HPM_P2
2021/06/26 00:01:03;;;;;;;6.47;3.40;;;;;;;19.49;76.44;101040.25;5091240;28;20193;-71
2021/06/26 00:03:31;;;;;;;5.70;3.50;;;;;;;19.48;76.55;101037.66;5087343;28;20205;-71
2021/06/26 00:06:00;;;;;;;5.67;3.60;;;;;;;19.44;76.31;101036.28;5090956;28;20270;-71
2021/06/26 00:08:29;;;;;;;4.87;3.57;;;;;;;19.42;76.64;101036.41;5089573;28;20200;-71
2021/06/26 00:10:58;;;;;;;5.23;3.47;;;;;;;19.40;76.73;101037.59;5089772;28;20221;-71
2021/06/26 00:13:27;;;;;;;3.87;3.00;;;;;;;19.17;77.20;101029.84;5089244;28;20686;-71
2021/06/26 00:15:55;;;;;;;4.33;3.10;;;;;;;18.90;77.75;100983.56;5090749;28;20675;-71
2021/06/26 00:18:23;;;;;;;3.80;3.03;;;;;;;19.23;77.84;101039.25;5088584;28;20236;-71
2021/06/26 00:20:51;;;;;;;4.80;2.97;;;;;;;19.19;76.99;101037.84;5089522;28;20200;-71
2021/06/26 00:23:21;;;;;;;3.13;2.53;;;;;;;19.21;76.99;101041.28;5089236;28;20601;-71
2021/06/26 00:25:51;;;;;;;3.10;2.73;;;;;;;19.18;77.49;101036.16;5090720;28;20702;-71
2021/06/26 00:28:19;;;;;;;7.17;3.17;;;;;;;19.19;76.82;101043.31;5089580;28;20602;-71
2021/06/26 00:30:47;;;;;;;5.30;2.77;;;;;;;19.08;76.97;101027.19;5088289;28;20212;-71
2021/06/26 00:33:16;;;;;;;6.07;2.63;;;;;;;19.19;76.32;101048.75;5090446;28;20251;-71
2021/06/26 00:35:44;;;;;;;4.10;3.10;;;;;;;19.18;76.58;101047.03;5088647;28;20261;-71
2021/06/26 00:38:12;;;;;;;6.13;3.00;;;;;;;19.16;76.52;101043.59;5089312;28;20197;-71
2021/06/26 00:40:40;;;;;;;3.73;2.63;;;;;;;19.16;76.19;101046.34;5089596;28;20569;-71
2021/06/26 00:43:10;;;;;;;3.73;2.50;;;;;;;19.13;75.71;101043.91;5089322;28;20188;-71
2021/06/26 00:45:38;;;;;;;5.40;2.70;;;;;;;19.13;75.97;101043.91;5087095;28;20676;-71
2021/06/26 00:48:07;;;;;;;3.33;2.60;;;;;;;19.11;75.82;101043.22;5088399;28;20197;-71
2021/06/26 00:50:35;;;;;;;3.27;2.50;;;;;;;19.10;75.09;101041.50;5088413;28;20718;-71
2021/06/26 00:53:04;;;;;;;3.40;2.70;;;;;;;19.05;75.94;101046.56;5088523;28;20193;-71
2021/06/26 00:55:32;;;;;;;4.13;2.90;;;;;;;19.02;75.45;101046.84;5089622;28;20668;-71
2021/06/26 00:58:01;;;;;;;4.10;2.60;;;;;;;18.99;75.85;101041.72;5081909;28;20192;-71
2021/06/26 01:00:32;;;;;;;3.23;2.50;;;;;;;18.90;75.78;101035.28;5081682;28;20242;-71
2021/06/26 01:03:01;;;;;;;3.50;2.47;;;;;;;18.92;76.20;101050.47;5087027;28;20196;-71
2021/06/26 01:05:29;;;;;;;5.60;2.60;;;;;;;18.79;75.33;101024.59;5089764;28;20276;-71
2021/06/26 01:07:57;;;;;;;3.43;2.40;;;;;;;18.50;74.98;100981.16;5088533;28;20207;-71
2021/06/26 01:10:26;;;;;;;2.73;2.20;;;;;;;18.96;74.17;101052.88;5088277;28;20209;-71
2021/06/26 01:12:56;;;;;;;3.10;2.30;;;;;;;18.93;74.71;101048.59;5089655;28;20202;-71
2021/06/26 01:15:25;;;;;;;2.60;2.40;;;;;;;18.96;73.53;101059.19;5087997;28;20210;-71
2021/06/26 01:17:54;;;;;;;4.03;2.17;;;;;;;18.96;73.54;101071.94;5088514;28;20232;-71
2021/06/26 01:20:24;;;;;;;3.10;2.57;;;;;;;18.97;73.81;101062.75;5088000;28;20196;-72
2021/06/26 01:22:58;;;;;;;2.63;2.30;;;;;;;18.95;74.10;101062.06;5088971;28;20197;-71
2021/06/26 01:25:28;;;;;;;3.13;2.60;;;;;;;18.93;74.14;101059.47;5087564;28;20245;-71
2021/06/26 01:27:57;;;;;;;3.37;2.63;;;;;;;18.92;73.75;101066.78;5087929;28;20208;-72
2021/06/26 01:30:27;;;;;;;2.87;2.40;;;;;;;18.78;72.64;101045.53;5088721;28;20205;-72
2021/06/26 01:32:57;;;;;;;2.97;2.40;;;;;;;18.88;72.40;101061.81;5082137;28;20207;-72
2021/06/26 01:35:25;;;;;;;3.07;2.33;;;;;;;18.95;72.00;101076.53;5088643;28;20215;-71
2021/06/26 01:37:56;;;;;;;3.67;2.37;;;;;;;18.90;72.32;101082.41;5088233;28;20198;-72
2021/06/26 01:40:26;;;;;;;5.07;2.23;;;;;;;18.91;71.86;101073.25;5087293;28;20212;-71
2021/06/26 01:42:56;;;;;;;6.00;2.70;;;;;;;18.87;72.51;101077.28;5082081;28;20197;-71
2021/06/26 01:45:25;;;;;;;2.43;2.07;;;;;;;18.86;71.82;101070.13;5081780;28;20204;-72
2021/06/26 01:47:55;;;;;;;2.83;2.20;;;;;;;18.81;71.75;101067.00;5083250;28;20204;-71
2021/06/26 01:50:24;;;;;;;3.93;2.40;;;;;;;18.86;71.77;101078.28;5080843;28;20216;-72
2021/06/26 01:52:53;;;;;;;3.47;2.33;;;;;;;18.89;71.13;101068.97;5083797;28;20193;-72
2021/06/26 01:55:23;;;;;;;2.83;2.43;;;;;;;18.87;71.21;101060.94;5088531;28;20611;-72
2021/06/26 01:57:52;;;;;;;2.63;2.30;;;;;;;18.84;70.33;101049.50;5087428;28;20192;-70
2021/06/26 02:00:21;;;;;;;4.33;2.37;;;;;;;18.85;71.08;101059.38;5087334;28;20204;-71
2021/06/26 02:02:50;;;;;;;4.20;2.20;;;;;;;18.81;71.91;101061.53;5087832;28;20688;-71
2021/06/26 02:05:22;;;;;;;4.13;2.27;;;;;;;18.76;71.97;101066.59;5075115;28;20206;-71
2021/06/26 02:07:52;;;;;;;3.70;2.50;;;;;;;18.74;72.30;101065.88;5086606;28;20196;-71
2021/06/26 02:10:22;;;;;;;3.63;2.50;;;;;;;18.74;71.69;101063.16;5087098;28;20204;-71
2021/06/26 02:12:50;;;;;;;2.00;1.80;;;;;;;18.75;71.89;101066.72;5086474;28;20192;-70
2021/06/26 02:15:18;;;;;;;2.50;2.10;;;;;;;18.73;71.88;101069.59;5088674;28;20922;-71
2021/06/26 02:17:46;;;;;;;2.97;2.30;;;;;;;18.70;72.65;101069.91;5086786;28;20233;-70
2021/06/26 02:20:14;;;;;;;2.57;2.37;;;;;;;18.68;72.57;101066.47;5088230;28;20212;-70
2021/06/26 02:22:45;;;;;;;3.57;2.20;;;;;;;18.67;71.48;101055.72;5080681;28;20196;-71
2021/06/26 02:25:14;;;;;;;3.27;2.53;;;;;;;18.70;71.48;101055.44;5080607;28;20204;-71
2021/06/26 02:27:44;;;;;;;2.30;2.10;;;;;;;18.70;71.34;101059.03;5086437;28;20196;-71
2021/06/26 02:30:14;;;;;;;4.30;2.57;;;;;;;18.66;71.13;101054.00;5087997;28;20659;-71
2021/06/26 02:32:42;;;;;;;4.27;2.40;;;;;;;18.70;70.88;101064.47;5077453;28;20200;-71
2021/06/26 02:35:12;;;;;;;4.33;2.37;;;;;;;18.68;70.49;101061.03;5084041;28;20477;-71
2021/06/26 02:37:40;;;;;;;3.93;2.20;;;;;;;18.72;70.02;101073.34;5086551;28;20718;-71
2021/06/26 02:40:10;;;;;;;2.90;2.43;;;;;;;18.60;69.58;101052.69;5086791;28;20556;-71
2021/06/26 02:42:38;;;;;;;2.37;2.17;;;;;;;18.75;69.38;101067.59;5087389;28;20545;-71
2021/06/26 02:45:10;;;;;;;3.50;2.30;;;;;;;18.58;69.03;101043.84;5083250;28;20193;-71
2021/06/26 02:47:38;;;;;;;3.23;2.20;;;;;;;18.75;69.65;101074.91;5085221;28;20200;-71
2021/06/26 02:50:08;;;;;;;3.87;2.10;;;;;;;18.75;70.14;101072.19;5087921;28;20193;-71
2021/06/26 02:52:36;;;;;;;3.50;2.20;;;;;;;18.74;70.54;101070.47;5086312;28;20235;-71
2021/06/26 02:55:05;;;;;;;2.97;2.10;;;;;;;18.70;71.13;101074.50;5099900;28;20193;-71
2021/06/26 02:57:33;;;;;;;2.40;2.20;;;;;;;18.70;70.36;101072.63;5073518;28;20205;-72
2021/06/26 03:00:01;;;;;;;2.77;2.40;;;;;;;18.72;70.89;101076.06;5085333;28;20192;-71
2021/06/26 03:02:30;;;;;;;2.73;2.17;;;;;;;18.67;70.87;101075.63;5086279;28;20634;-71
2021/06/26 03:04:58;;;;;;;2.43;2.03;;;;;;;18.72;70.17;101086.94;5086501;28;20196;-71
2021/06/26 03:07:27;;;;;;;3.37;2.10;;;;;;;18.73;69.72;101080.50;5086712;28;20226;-70
2021/06/26 03:09:55;;;;;;;8.50;2.57;;;;;;;18.75;70.18;101081.19;5086678;28;20275;-71
2021/06/26 03:12:23;;;;;;;2.23;2.03;;;;;;;18.77;69.58;101081.91;5087083;28;20220;-70
2021/06/26 03:14:51;;;;;;;2.87;2.30;;;;;;;18.83;69.71;101091.34;5086707;28;20699;-71
2021/06/26 03:17:19;;;;;;;6.47;2.57;;;;;;;18.85;69.66;101081.16;5086745;28;20597;-71
2021/06/26 03:19:48;;;;;;;3.23;2.33;;;;;;;18.86;70.53;101085.59;5086800;28;20204;-71
2021/06/26 03:22:16;;;;;;;3.10;2.40;;;;;;;18.79;70.94;101081.75;5085178;28;20298;-72
2021/06/26 03:24:44;;;;;;;7.33;2.50;;;;;;;18.85;70.80;101089.31;5086142;28;20258;-71
2021/06/26 03:27:14;;;;;;;3.80;2.40;;;;;;;18.86;70.35;101075.56;5085501;28;20204;-70
2021/06/26 03:29:42;;;;;;;2.90;2.40;;;;;;;18.92;70.80;101088.56;5086266;28;20430;-70
2021/06/26 03:32:11;;;;;;;4.97;2.10;;;;;;;18.93;70.83;101093.00;5085510;28;20223;-71
2021/06/26 03:34:40;;;;;;;5.97;2.47;;;;;;;18.92;71.44;101095.88;5089171;28;20226;-71
2021/06/26 03:37:09;;;;;;;2.93;2.07;;;;;;;18.90;72.04;101098.75;5089366;28;20639;-71
2021/06/26 03:39:37;;;;;;;9.83;2.63;;;;;;;18.88;73.13;101103.47;5090416;28;20200;-70
2021/06/26 03:42:06;;;;;;;3.17;2.47;;;;;;;18.76;73.44;101087.50;5087561;28;20674;-71
2021/06/26 03:44:34;;;;;;;6.10;2.37;;;;;;;18.82;74.28;101101.38;5090525;28;20203;-71
2021/06/26 03:47:03;;;;;;;2.90;2.43;;;;;;;18.89;73.37;101101.63;5090136;28;20624;-71
2021/06/26 03:49:34;;;;;;;2.77;2.33;;;;;;;18.95;73.36;101101.00;5086686;28;20678;-71
2021/06/26 03:52:02;;;;;;;2.70;2.33;;;;;;;18.80;74.04;101075.31;5074420;28;20216;-72
2021/06/26 03:54:32;;;;;;;2.87;2.27;;;;;;;19.02;73.76;101109.47;5088960;28;20208;-71
2021/06/26 03:57:00;;;;;;;6.93;2.37;;;;;;;19.06;73.85;101109.03;5090196;28;20587;-71
2021/06/26 03:59:28;;;;;;;4.50;2.03;;;;;;;19.18;72.56;101107.81;5087843;28;20698;-72
2021/06/26 04:01:57;;;;;;;4.33;2.27;;;;;;;19.28;71.88;101101.44;5091085;28;20694;-71
2021/06/26 04:04:25;;;;;;;4.70;2.10;;;;;;;19.37;71.44;101101.41;5079552;28;20200;-72
2021/06/26 04:06:53;;;;;;;4.17;2.43;;;;;;;19.43;70.53;101108.97;5085483;28;20673;-72
2021/06/26 04:09:21;;;;;;;2.10;1.90;;;;;;;19.47;69.29;101110.38;5086642;28;20203;-72
2021/06/26 04:11:51;;;;;;;3.50;2.10;;;;;;;19.51;69.49;101100.88;5080730;28;20227;-71
2021/06/26 04:14:19;;;;;;;2.23;2.00;;;;;;;19.51;69.38;101098.16;5076967;28;20201;-72
2021/06/26 04:16:47;;;;;;;5.90;2.10;;;;;;;19.56;69.89;101111.34;5076995;28;20196;-71
2021/06/26 04:19:15;;;;;;;2.80;2.10;;;;;;;19.61;69.95;101108.19;5090193;28;20598;-72
2021/06/26 04:21:44;;;;;;;5.43;2.17;;;;;;;19.37;69.40;101066.00;5088824;28;20628;-72
2021/06/26 04:24:12;;;;;;;2.53;2.27;;;;;;;19.65;70.10;101104.16;5090382;28;20195;-71
2021/06/26 04:26:40;;;;;;;2.53;2.33;;;;;;;19.67;70.12;101115.75;5089314;28;20717;-71
2021/06/26 04:29:09;;;;;;;2.33;1.97;;;;;;;19.56;71.09;101111.34;5073141;28;20311;-71
2021/06/26 04:31:37;;;;;;;3.27;2.23;;;;;;;19.65;70.70;101115.03;5090023;28;20214;-72
2021/06/26 04:34:06;;;;;;;5.30;2.03;;;;;;;19.68;70.11;101106.56;5088944;28;20679;-72
2021/06/26 04:36:34;;;;;;;3.33;2.30;;;;;;;19.72;69.59;101105.22;5090075;28;20196;-71
2021/06/26 04:39:07;;;;;;;4.63;2.23;;;;;;;19.76;69.77;101098.47;5088659;28;20193;-72
2021/06/26 04:41:35;;;;;;;3.20;2.43;;;;;;;19.69;70.64;101108.28;5088737;28;20204;-72
2021/06/26 04:44:03;;;;;;;3.37;2.30;;;;;;;19.66;70.46;101112.16;5088092;28;20199;-72
2021/06/26 04:46:33;;;;;;;5.63;2.30;;;;;;;19.69;70.67;101116.44;5089968;28;20668;-72
2021/06/26 04:49:01;;;;;;;2.80;2.10;;;;;;;19.23;70.49;101033.81;5077773;28;20201;-73
2021/06/26 04:51:29;;;;;;;2.47;2.20;;;;;;;19.70;69.66;101119.00;5086964;28;20242;-70
2021/06/26 04:53:57;;;;;;;3.67;2.23;;;;;;;19.73;69.68;101113.25;5090099;28;20608;-70
2021/06/26 04:56:25;;;;;;;2.00;1.90;;;;;;;19.73;69.68;101109.66;5085843;28;20687;-70
2021/06/26 04:58:54;;;;;;;3.03;2.00;;;;;;;19.78;69.06;101112.78;5088680;28;20192;-70
2021/06/26 05:01:22;;;;;;;3.67;2.30;;;;;;;19.82;69.17;101114.19;5088987;28;20606;-70
2021/06/26 05:03:51;;;;;;;2.67;2.20;;;;;;;19.83;69.61;101110.44;5089617;28;20201;-70
2021/06/26 05:06:19;;;;;;;2.80;2.50;;;;;;;19.83;69.70;101110.44;5088296;28;20193;-70
2021/06/26 05:08:47;;;;;;;2.33;2.13;;;;;;;19.91;70.01;101109.69;5088480;28;20216;-71
2021/06/26 05:11:15;;;;;;;3.17;2.63;;;;;;;19.74;69.63;101082.25;5101931;28;20204;-70
2021/06/26 05:13:44;;;;;;;4.33;2.23;;;;;;;19.94;69.38;101107.50;5087812;28;20303;-71
2021/06/26 05:16:12;;;;;;;3.17;2.40;;;;;;;20.05;69.01;101120.91;5092732;28;20201;-71
2021/06/26 05:18:40;;;;;;;3.90;2.37;;;;;;;19.98;69.66;101110.78;5087419;28;20253;-71
2021/06/26 05:21:09;;;;;;;3.67;2.37;;;;;;;20.03;69.83;101131.09;5088460;28;20237;-71
2021/06/26 05:23:37;;;;;;;2.23;2.03;;;;;;;19.87;70.80;101128.19;5084702;28;20549;-70
2021/06/26 05:26:09;;;;;;;4.60;2.73;;;;;;;19.81;70.59;101140.59;5088016;28;20199;-71
2021/06/26 05:28:38;;;;;;;3.03;2.20;;;;;;;19.73;71.03;101150.56;5084687;28;20305;-71
2021/06/26 05:31:06;;;;;;;4.90;2.53;;;;;;;19.68;70.97;101159.19;5086932;28;20203;-71
2021/06/26 05:33:34;;;;;;;9.40;2.60;;;;;;;19.63;71.26;101155.22;5087466;28;20216;-71
2021/06/26 05:36:02;;;;;;;2.70;2.50;;;;;;;19.49;72.50;101159.25;5089144;28;20211;-72
2021/06/26 05:38:31;;;;;;;4.30;2.10;;;;;;;19.38;73.45;101170.38;5087834;28;20200;-71
2021/06/26 05:40:59;;;;;;;3.93;2.60;;;;;;;19.20;74.26;101175.72;5088066;28;20193;-71
2021/06/26 05:43:28;;;;;;;2.70;2.30;;;;;;;19.20;73.75;101170.28;5088633;28;20594;-71
2021/06/26 05:45:56;;;;;;;3.90;2.33;;;;;;;19.02;74.29;101166.63;5087247;28;20189;-71
2021/06/26 05:48:24;;;;;;;8.33;3.13;;;;;;;19.03;74.75;101171.06;5088267;28;20200;-71
2021/06/26 05:50:52;;;;;;;4.20;2.40;;;;;;;19.06;74.92;101181.66;5089208;28;20574;-71
2021/06/26 05:53:20;;;;;;;3.53;2.40;;;;;;;19.08;74.15;101176.94;5077543;28;20224;-71
2021/06/26 05:55:57;;;;;;;6.93;2.70;;;;;;;19.14;74.06;101176.34;5086973;28;20204;-71
2021/06/26 05:58:26;;;;;;;3.00;2.20;;;;;;;19.18;72.42;101183.19;5087843;28;20205;-71
2021/06/26 06:00:54;;;;;;;4.57;3.40;;;;;;;19.18;72.58;101172.31;5088617;28;20201;-71
2021/06/26 06:03:22;;;;;;;2.93;2.23;;;;;;;19.19;72.16;101172.16;5087327;28;20200;-70
2021/06/26 06:05:51;;;;;;;3.27;2.33;;;;;;;19.04;72.12;101160.03;5085886;28;20208;-71
2021/06/26 06:08:19;;;;;;;3.30;2.40;;;;;;;19.16;72.37;101175.19;5087691;28;20193;-71
2021/06/26 06:10:47;;;;;;;3.30;2.53;;;;;;;19.12;71.83;101173.75;5088761;28;20219;-71
2021/06/26 06:13:20;;;;;;;4.13;2.80;;;;;;;19.10;72.06;101164.03;5086749;28;20224;-72
2021/06/26 06:15:50;;;;;;;6.67;2.60;;;;;;;19.13;72.35;101185.50;5086239;28;20207;-72
2021/06/26 06:18:20;;;;;;;4.93;2.67;;;;;;;19.06;72.91;101185.25;5087092;28;20259;-71
2021/06/26 06:20:49;;;;;;;4.30;2.53;;;;;;;19.05;72.78;101185.41;5087939;28;20212;-71
2021/06/26 06:23:17;;;;;;;3.10;2.40;;;;;;;19.06;72.01;101184.41;5073777;28;20597;-71
2021/06/26 06:25:45;;;;;;;2.43;2.20;;;;;;;19.06;71.75;101181.66;5087265;28;20381;-71
2021/06/26 06:28:13;;;;;;;4.30;2.57;;;;;;;19.03;71.94;101171.06;5074554;28;20201;-72
2021/06/26 06:30:43;;;;;;;3.37;2.73;;;;;;;19.10;71.59;101186.66;5083949;28;20211;-71
2021/06/26 06:33:11;;;;;;;3.13;2.63;;;;;;;19.12;72.17;101184.66;5086942;28;20224;-70
2021/06/26 06:35:39;;;;;;;3.53;2.50;;;;;;;19.15;71.62;101184.34;5086253;28;20655;-70
2021/06/26 06:38:07;;;;;;;3.80;2.80;;;;;;;19.20;71.30;101189.34;5086561;28;20197;-70
2021/06/26 06:40:35;;;;;;;4.33;2.60;;;;;;;19.25;70.17;101184.31;5086481;28;20215;-70
2021/06/26 06:43:03;;;;;;;6.20;2.63;;;;;;;19.26;72.01;101194.19;5088227;28;20545;-71
2021/06/26 06:45:32;;;;;;;3.17;2.60;;;;;;;19.19;72.54;101179.47;5086256;28;20189;-71
2021/06/26 06:48:02;;;;;;;4.30;2.83;;;;;;;19.37;72.34;101193.16;5086710;28;20217;-71
2021/06/26 06:50:31;;;;;;;3.57;2.90;;;;;;;19.44;72.24;101195.13;5087713;28;20279;-71
2021/06/26 06:53:02;;;;;;;3.47;2.57;;;;;;;19.27;72.70;101160.50;5086378;28;20204;-71
2021/06/26 06:55:30;;;;;;;5.27;2.60;;;;;;;19.60;73.03;101205.44;5086572;28;20212;-71
2021/06/26 06:57:59;;;;;;;5.23;2.60;;;;;;;19.73;72.03;101199.63;5086096;28;20604;-71
2021/06/26 07:00:27;;;;;;;4.00;2.67;;;;;;;19.87;71.22;101199.09;5088076;28;20196;-71
2021/06/26 07:02:55;;;;;;;3.30;2.70;;;;;;;20.01;70.92;101195.84;5086453;28;20195;-71
2021/06/26 07:05:25;;;;;;;5.10;2.60;;;;;;;20.11;70.45;101196.63;5086481;28;20265;-71
2021/06/26 07:07:53;;;;;;;3.33;2.43;;;;;;;20.23;70.15;101196.44;5087923;28;20674;-70
2021/06/26 07:10:21;;;;;;;6.53;2.60;;;;;;;20.05;71.90;101159.06;5076434;28;20223;-71
2021/06/26 07:12:49;;;;;;;3.67;2.60;;;;;;;20.32;72.09;101195.47;5085833;28;20200;-70
2021/06/26 07:15:17;;;;;;;3.97;2.60;;;;;;;20.42;71.50;101196.28;5086302;28;20196;-70
2021/06/26 07:17:45;;;;;;;4.27;2.50;;;;;;;20.55;72.13;101204.09;5087180;28;20236;-71
2021/06/26 07:20:15;;;;;;;3.47;2.63;;;;;;;20.66;70.91;101199.22;5096980;28;20682;-72
2021/06/26 07:22:44;;;;;;;6.37;2.70;;;;;;;20.79;71.40;101196.06;5086310;28;20269;-71
2021/06/26 07:25:12;;;;;;;3.23;2.43;;;;;;;20.78;72.27;101191.63;5086424;28;20200;-71
2021/06/26 07:27:40;;;;;;;4.03;2.80;;;;;;;20.65;73.40;101150.25;5087453;28;20199;-72
2021/06/26 07:30:10;;;;;;;7.63;2.73;;;;;;;20.78;74.54;101188.91;5100666;28;20196;-71
2021/06/26 07:32:38;;;;;;;4.27;2.63;;;;;;;20.79;74.56;101176.97;5072791;28;20207;-71
2021/06/26 07:35:07;;;;;;;4.63;2.73;;;;;;;20.64;75.53;101162.19;5093509;28;20228;-71
2021/06/26 07:37:36;;;;;;;3.63;2.40;;;;;;;20.92;74.35;101188.34;5083666;28;20422;-72
2021/06/26 07:40:07;;;;;;;4.63;2.70;;;;;;;21.00;74.21;101190.25;5087549;28;20407;-71
2021/06/26 07:42:35;;;;;;;2.80;2.40;;;;;;;21.14;73.51;101186.09;5071530;28;20205;-71
2021/06/26 07:45:04;;;;;;;2.90;2.50;;;;;;;21.18;73.67;101193.81;5086385;28;20578;-71
2021/06/26 07:47:32;;;;;;;4.43;2.67;;;;;;;21.06;73.36;101173.22;5082950;28;20197;-72
2021/06/26 07:50:00;;;;;;;2.77;2.40;;;;;;;21.30;72.06;101184.34;5085003;28;20675;-71
2021/06/26 07:52:29;;;;;;;4.37;2.50;;;;;;;21.26;73.44;101185.69;5085358;28;20694;-71
2021/06/26 07:54:57;;;;;;;2.73;2.50;;;;;;;21.33;70.99;101181.25;5086280;28;20216;-71
2021/06/26 07:57:26;;;;;;;3.93;2.47;;;;;;;21.19;70.51;101140.03;5086106;28;20197;-71
2021/06/26 07:59:54;;;;;;;7.37;2.87;;;;;;;21.45;72.03;101175.53;5085960;28;20189;-71
2021/06/26 08:02:22;;;;;;;2.77;2.47;;;;;;;21.48;72.12;101180.66;5085576;28;20253;-71
2021/06/26 08:04:52;;;;;;;2.90;2.60;;;;;;;21.40;73.00;101181.47;5081861;28;20222;-71
2021/06/26 08:07:20;;;;;;;4.23;2.47;;;;;;;21.15;72.12;101131.28;5080526;28;20463;-71
2021/06/26 08:09:48;;;;;;;3.07;2.37;;;;;;;21.55;72.24;101190.78;5084080;28;20484;-71
2021/06/26 08:12:17;;;;;;;3.63;2.67;;;;;;;21.65;70.86;101187.91;5086268;28;20193;-70
2021/06/26 08:14:47;;;;;;;3.50;2.50;;;;;;;21.77;69.13;101194.81;5085154;28;20224;-71
2021/06/26 08:17:15;;;;;;;3.77;2.90;;;;;;;21.81;70.46;101190.72;5086382;28;20711;-71
2021/06/26 08:19:44;;;;;;;3.80;2.53;;;;;;;21.82;71.67;101197.03;5087245;28;20200;-71
2021/06/26 08:22:12;;;;;;;5.40;2.70;;;;;;;22.09;68.43;101188.59;5089452;28;20222;-71
2021/06/26 08:24:41;;;;;;;4.17;2.80;;;;;;;22.22;69.65;101188.09;5090218;28;20578;-71
2021/06/26 08:27:10;;;;;;;2.90;2.60;;;;;;;22.44;68.88;101192.06;5089344;28;20573;-71
2021/06/26 08:29:38;;;;;;;3.20;2.57;;;;;;;22.53;71.64;101180.94;5089376;28;20656;-71
2021/06/26 08:32:08;;;;;;;4.57;2.70;;;;;;;22.88;71.64;101187.09;5086589;28;20214;-71
2021/06/26 08:34:37;;;;;;;5.37;2.70;;;;;;;23.05;71.13;101155.91;5078544;28;20208;-72
2021/06/26 08:37:21;;;;;;;5.90;2.50;;;;;;;23.63;70.09;101189.53;5073305;28;20635;-71
2021/06/26 08:39:49;;;;;;;3.23;2.43;;;;;;;23.99;68.63;101189.84;5090188;28;20476;-71
2021/06/26 08:42:18;;;;;;;3.23;2.70;;;;;;;24.22;67.71;101174.25;5088039;28;20205;-72
2021/06/26 08:44:49;;;;;;;6.00;2.50;;;;;;;24.48;65.79;101167.56;5088692;28;20246;-71
2021/06/26 08:47:19;;;;;;;3.67;2.37;;;;;;;24.84;61.85;101163.13;5090002;28;20200;-71
2021/06/26 08:49:47;;;;;;;2.90;2.60;;;;;;;24.91;64.56;101182.47;5088911;28;20197;-71
2021/06/26 08:52:15;;;;;;;2.97;2.47;;;;;;;24.49;65.14;101186.63;5089006;28;20201;-72
2021/06/26 08:54:43;;;;;;;4.30;2.67;;;;;;;24.44;65.52;101178.91;5101529;28;20224;-71
2021/06/26 08:57:12;;;;;;;3.37;2.47;;;;;;;24.35;65.42;101191.00;5088636;28;20205;-70
2021/06/26 08:59:40;;;;;;;4.70;2.80;;;;;;;24.27;66.76;101179.19;5088007;28;20586;-71
2021/06/26 09:02:21;;;;;;;3.20;2.70;;;;;;;23.99;66.37;101176.13;5097414;28;20200;-71
2021/06/26 09:04:50;;;;;;;3.03;2.40;;;;;;;23.87;66.10;101186.63;5077734;28;20404;-71
2021/06/26 09:07:27;;;;;;;3.70;2.70;;;;;;;24.02;65.01;101190.34;5089916;28;20253;-72
2021/06/26 09:09:57;;;;;;;4.70;2.80;;;;;;;24.08;65.97;101172.28;5089122;28;20197;-70
2021/06/26 09:12:27;;;;;;;2.57;2.37;;;;;;;24.30;65.46;101184.34;5088189;28;20258;-71
2021/06/26 09:14:55;;;;;;;3.80;2.70;;;;;;;24.22;65.44;101177.00;5088571;28;20292;-71
2021/06/26 09:17:35;;;;;;;4.13;2.47;;;;;;;24.61;63.83;101198.03;5089461;28;20232;-71
2021/06/26 09:20:07;;;;;;;3.47;2.47;;;;;;;24.82;63.21;101198.19;5088045;28;20204;-71
2021/06/26 09:22:40;;;;;;;5.17;2.33;;;;;;;24.82;62.67;101181.69;5088391;28;20204;-71
2021/06/26 09:25:25;;;;;;;3.10;2.50;;;;;;;24.91;62.24;101180.56;5086679;28;20618;-71
2021/06/26 09:27:53;;;;;;;3.87;2.70;;;;;;;24.93;62.50;101186.72;5089059;28;20197;-71
2021/06/26 09:30:33;;;;;;;2.97;2.50;;;;;;;24.96;63.23;101191.84;5087408;28;20200;-71
2021/06/26 09:33:11;;;;;;;3.03;2.50;;;;;;;25.16;61.50;101194.97;5088239;28;20189;-71
2021/06/26 09:35:39;;;;;;;2.33;2.10;;;;;;;25.06;61.79;101194.34;5087989;28;20227;-71
2021/06/26 09:38:08;;;;;;;2.60;2.40;;;;;;;25.00;61.81;101186.88;5088302;28;20193;-71
2021/06/26 09:40:39;;;;;;;4.13;2.33;;;;;;;24.76;63.38;101204.41;5086390;28;20197;-71
2021/06/26 09:43:08;;;;;;;2.70;2.50;;;;;;;24.49;63.93;101207.72;5089264;28;20205;-71
2021/06/26 09:45:36;;;;;;;3.67;2.60;;;;;;;24.34;63.68;101204.91;5087431;28;20193;-71
2021/06/26 09:48:08;;;;;;;2.60;2.40;;;;;;;24.48;63.37;101193.13;5083483;28;20298;-72
2021/06/26 09:50:39;;;;;;;2.97;2.50;;;;;;;24.66;62.43;101207.41;5081777;28;20212;-71
2021/06/26 09:53:07;;;;;;;2.97;2.60;;;;;;;24.76;62.53;101212.63;5086843;28;20663;-71
2021/06/26 09:55:38;;;;;;;3.87;2.47;;;;;;;24.71;62.67;101209.59;5076980;28;20324;-72
2021/06/26 09:58:09;;;;;;;2.63;2.40;;;;;;;24.58;62.73;101212.97;5083144;28;20203;-72
2021/06/26 10:00:40;;;;;;;3.00;2.57;;;;;;;24.44;62.85;101208.25;5082933;28;20196;-71
2021/06/26 10:03:10;;;;;;;4.17;2.70;;;;;;;24.25;63.70;101204.09;5076750;28;20573;-72
2021/06/26 10:05:39;;;;;;;4.90;2.63;;;;;;;24.02;63.44;101178.50;5083367;28;20201;-71
2021/06/26 10:08:07;;;;;;;4.00;2.80;;;;;;;24.22;64.41;101204.47;5083846;28;20192;-71
2021/06/26 10:10:35;;;;;;;3.00;2.70;;;;;;;24.12;64.74;101176.38;5082581;28;20212;-71
2021/06/26 10:13:05;;;;;;;3.00;2.47;;;;;;;24.49;63.66;101202.22;5085815;28;20200;-71
2021/06/26 10:15:34;;;;;;;2.80;2.50;;;;;;;24.40;64.41;101205.03;5086230;28;20209;-74
2021/06/26 10:18:03;;;;;;;4.03;2.97;;;;;;;24.24;64.03;101205.13;5087230;28;20260;-71
2021/06/26 10:20:37;;;;;;;3.23;2.70;;;;;;;24.44;63.84;101195.38;5081415;28;20196;-74
2021/06/26 10:23:06;;;;;;;4.47;2.70;;;;;;;24.49;63.45;101193.97;5086598;28;20615;-71
2021/06/26 10:25:35;;;;;;;4.77;2.70;;;;;;;24.39;63.27;101203.31;5086367;28;20200;-71
2021/06/26 10:28:05;;;;;;;3.50;2.50;;;;;;;24.10;62.74;101171.06;5088257;28;20200;-72
2021/06/26 10:30:34;;;;;;;7.63;2.70;;;;;;;24.27;63.50;101193.78;5086568;28;20202;-71
2021/06/26 10:33:05;;;;;;;3.97;2.90;;;;;;;24.28;62.81;101195.53;5086481;28;20196;-71
2021/06/26 10:35:36;;;;;;;3.73;2.77;;;;;;;24.43;63.29;101188.19;5086891;28;20232;-71
2021/06/26 10:38:07;;;;;;;3.30;2.60;;;;;;;24.55;63.16;101194.13;5086765;28;20197;-71
2021/06/26 10:40:44;;;;;;;2.97;2.53;;;;;;;24.67;63.94;101186.28;5085931;28;20548;-72
2021/06/26 10:43:18;;;;;;;2.60;2.40;;;;;;;24.86;64.33;101184.94;5087571;28;20246;-71
2021/06/26 10:45:48;;;;;;;3.10;2.70;;;;;;;24.90;62.52;101156.88;5087390;28;20184;-72
2021/06/26 10:48:22;;;;;;;3.55;2.60;;;;;;;25.38;62.38;101173.91;5078439;28;20287;-71
2021/06/26 10:50:53;;;;;;;4.28;2.70;;;;;;;25.81;61.03;101172.19;5086650;28;20301;-71
2021/06/26 10:53:31;;;;;;;3.00;2.70;;;;;;;26.21;61.07;101172.63;5086221;28;20208;-71
2021/06/26 10:56:05;;;;;;;2.92;2.40;;;;;;;26.56;58.64;101157.09;5084569;28;20208;-71
2021/06/26 10:58:35;;;;;;;2.40;2.20;;;;;;;27.08;56.12;101170.50;5086105;28;20195;-72
2021/06/26 11:01:15;;;;;;;3.20;2.50;;;;;;;27.20;56.00;101134.91;5086768;28;20202;-71
2021/06/26 11:03:44;;;;;;;2.75;2.55;;;;;;;27.50;54.94;101169.47;5086043;28;20303;-71
2021/06/26 11:06:25;;;;;;;5.82;2.60;;;;;;;27.74;54.39;101164.53;5084193;28;20925;-71
2021/06/26 11:08:58;;;;;;;2.97;2.70;;;;;;;27.82;53.73;101150.53;5087023;28;20215;-71
2021/06/26 11:11:37;;;;;;;2.55;2.35;;;;;;;28.05;53.34;101167.59;5084638;28;20497;-72
2021/06/26 11:14:11;;;;;;;2.75;2.40;;;;;;;27.94;53.51;101159.94;5086978;28;20592;-71
2021/06/26 11:16:42;;;;;;;2.75;2.55;;;;;;;27.83;53.54;101158.59;5084937;28;20569;-72
2021/06/26 11:19:10;;;;;;;3.78;2.53;;;;;;;28.14;53.06;101160.81;5087243;28;20458;-72
2021/06/26 11:21:42;;;;;;;2.83;2.50;;;;;;;28.31;52.69;101166.00;5085837;28;20614;-72
2021/06/26 11:24:12;;;;;;;2.72;2.47;;;;;;;28.33;52.06;101167.50;5086584;28;20197;-72
2021/06/26 11:26:52;;;;;;;3.53;2.70;;;;;;;28.24;51.74;101184.44;5087642;28;20196;-71
2021/06/26 11:29:28;;;;;;;3.70;2.75;;;;;;;27.74;54.23;101192.13;5074531;28;20200;-72
2021/06/26 11:31:58;;;;;;;4.32;2.60;;;;;;;27.26;54.63;101188.44;5086435;28;20200;-71
2021/06/26 11:34:26;;;;;;;3.70;2.45;;;;;;;26.76;56.56;101193.97;5085315;28;20215;-71